Time;durP1;ratioP1;P1;durP2;ratioP2;P2;SDS_P1;SDS_P2;PMS_P1;PMS_P2;Temp;Humidity;BMP_temperature;BMP_pressure;BME280_temperature;BME280_humidity;BME280_pressure;Samples;Min_cycle;Max_cycle;Signal;HPM_P1;HPM_P2
2023/03/13 00:01:12;;;;;;;6.10;4.03;;;;;;;;;;5057281;28;20205;-38
2023/03/13 00:03:39;;;;;;;8.13;3.77;;;;;;;;;;5053797;28;20214;-32
2023/03/13 00:06:08;;;;;;;7.83;3.83;;;;;;;;;;5055293;28;20221;-35
2023/03/13 00:08:35;;;;;;;7.73;4.07;;;;;;;;;;5052231;28;20237;-38
2023/03/13 00:11:03;;;;;;;4.60;3.30;;;;;;;;;;5055537;28;20206;-31
2023/03/13 00:13:30;;;;;;;7.03;4.00;;;;;;;;;;5033623;28;20217;-34
2023/03/13 00:16:01;;;;;;;8.27;3.70;;;;;;;;;;5053273;28;20220;-31
2023/03/13 00:18:28;;;;;;;9.13;3.47;;;;;;;;;;5043159;28;20202;-30
2023/03/13 00:20:58;;;;;;;7.50;3.70;;;;;;;;;;5051773;28;20210;-36
2023/03/13 00:23:27;;;;;;;4.77;2.90;;;;;;;;;;5047015;28;20233;-34
2023/03/13 00:25:57;;;;;;;8.67;3.53;;;;;;;;;;5054073;28;20206;-32
2023/03/13 00:28:24;;;;;;;5.67;3.20;;;;;;;;;;5053673;28;20229;-28
2023/03/13 00:30:51;;;;;;;6.40;3.33;;;;;;;;;;5056038;28;20307;-34
2023/03/13 00:33:18;;;;;;;8.87;3.57;;;;;;;;;;5051219;28;20194;-31
2023/03/13 00:35:45;;;;;;;7.27;3.50;;;;;;;;;;5051039;28;20202;-29
2023/03/13 00:38:12;;;;;;;5.90;3.57;;;;;;;;;;5050289;28;20256;-31
2023/03/13 00:40:41;;;;;;;6.60;3.67;;;;;;;;;;5049488;28;20202;-34
2023/03/13 00:43:08;;;;;;;8.17;3.90;;;;;;;;;;5034808;28;20222;-29
2023/03/13 00:45:35;;;;;;;11.07;4.33;;;;;;;;;;5046558;28;20217;-30
2023/03/13 00:48:02;;;;;;;8.67;3.80;;;;;;;;;;5041967;28;20229;-34
2023/03/13 00:50:29;;;;;;;5.20;3.67;;;;;;;;;;5050477;28;20213;-31
2023/03/13 00:52:56;;;;;;;8.00;3.47;;;;;;;;;;5046285;28;20206;-32
2023/03/13 00:55:23;;;;;;;6.10;3.80;;;;;;;;;;5037790;28;20215;-35
2023/03/13 00:57:52;;;;;;;6.77;3.67;;;;;;;;;;5042736;28;20226;-33
2023/03/13 01:00:19;;;;;;;9.37;3.70;;;;;;;;;;5046789;28;20217;-32
2023/03/13 01:02:46;;;;;;;8.33;4.07;;;;;;;;;;5046696;28;20210;-28
2023/03/13 01:05:14;;;;;;;9.20;4.27;;;;;;;;;;5030636;28;20213;-27
2023/03/13 01:07:41;;;;;;;5.63;3.97;;;;;;;;;;5041076;28;20229;-35
2023/03/13 01:10:08;;;;;;;6.80;3.60;;;;;;;;;;5038346;28;20210;-34
2023/03/13 01:12:35;;;;;;;8.67;4.53;;;;;;;;;;5029695;28;20194;-33
2023/03/13 01:15:04;;;;;;;7.43;3.90;;;;;;;;;;5039944;28;20222;-35
2023/03/13 01:17:31;;;;;;;7.60;3.97;;;;;;;;;;5029867;28;20215;-32
2023/03/13 01:19:58;;;;;;;5.73;3.93;;;;;;;;;;5030194;28;20203;-30
2023/03/13 01:22:26;;;;;;;8.70;4.60;;;;;;;;;;5030054;28;20230;-30
2023/03/13 01:24:53;;;;;;;6.93;3.90;;;;;;;;;;5051454;28;20213;-36
2023/03/13 01:27:20;;;;;;;14.77;5.20;;;;;;;;;;5042306;28;20225;-29
2023/03/13 01:29:47;;;;;;;8.63;4.27;;;;;;;;;;5047022;28;20206;-29
2023/03/13 01:32:16;;;;;;;7.87;4.03;;;;;;;;;;5042981;28;20238;-30
2023/03/13 01:34:43;;;;;;;8.87;4.00;;;;;;;;;;5049135;28;20198;-32
2023/03/13 01:37:10;;;;;;;8.00;4.27;;;;;;;;;;5047507;28;20222;-32
2023/03/13 01:39:37;;;;;;;8.57;4.50;;;;;;;;;;5054103;28;20214;-34
2023/03/13 01:42:04;;;;;;;6.20;3.70;;;;;;;;;;5041453;28;20205;-28
2023/03/13 01:44:49;;;;;;;7.73;3.93;;;;;;;;;;5038276;28;20563;-31
2023/03/13 01:47:18;;;;;;;6.33;3.63;;;;;;;;;;5041031;28;20230;-32
2023/03/13 01:49:45;;;;;;;7.50;4.00;;;;;;;;;;5029450;28;20199;-40
2023/03/13 01:52:15;;;;;;;8.73;3.60;;;;;;;;;;5030156;28;20232;-27
2023/03/13 01:54:43;;;;;;;9.50;4.60;;;;;;;;;;5039035;28;20233;-31
2023/03/13 01:57:14;;;;;;;8.53;3.63;;;;;;;;;;5029823;28;20222;-30
2023/03/13 01:59:43;;;;;;;8.27;3.80;;;;;;;;;;5044004;28;20205;-32
2023/03/13 02:02:10;;;;;;;6.53;3.93;;;;;;;;;;5044759;28;20206;-30
2023/03/13 02:04:40;;;;;;;6.83;3.90;;;;;;;;;;5046072;28;20202;-34
2023/03/13 02:07:11;;;;;;;9.87;3.60;;;;;;;;;;5029431;28;20448;-28
2023/03/13 02:09:39;;;;;;;5.67;3.90;;;;;;;;;;5029562;28;20206;-36
2023/03/13 02:12:09;;;;;;;10.37;4.83;;;;;;;;;;5045483;28;20294;-34
2023/03/13 02:14:38;;;;;;;7.63;4.20;;;;;;;;;;5051946;28;20209;-34
2023/03/13 02:17:05;;;;;;;8.23;3.80;;;;;;;;;;5044338;28;20222;-33
2023/03/13 02:19:36;;;;;;;8.97;3.87;;;;;;;;;;5032398;28;20202;-31
2023/03/13 02:22:07;;;;;;;7.07;4.03;;;;;;;;;;5041105;28;20216;-29
2023/03/13 02:24:38;;;;;;;8.83;4.00;;;;;;;;;;5044493;28;20237;-31
2023/03/13 02:27:06;;;;;;;9.50;3.93;;;;;;;;;;5031547;28;20222;-33
2023/03/13 02:29:33;;;;;;;9.63;4.27;;;;;;;;;;5040038;28;20319;-33
2023/03/13 02:32:00;;;;;;;9.10;4.20;;;;;;;;;;5048659;28;20206;-34
2023/03/13 02:34:30;;;;;;;6.77;4.10;;;;;;;;;;5049467;28;20202;-32
2023/03/13 02:36:58;;;;;;;8.17;4.23;;;;;;;;;;5049968;28;20221;-35
2023/03/13 02:39:26;;;;;;;12.83;4.70;;;;;;;;;;5054665;28;20205;-32
2023/03/13 02:41:55;;;;;;;6.00;3.93;;;;;;;;;;5052626;28;20202;-37
2023/03/13 02:44:23;;;;;;;7.73;3.50;;;;;;;;;;5041871;28;20225;-28
2023/03/13 02:46:52;;;;;;;11.00;3.80;;;;;;;;;;5055827;28;20224;-37
2023/03/13 02:49:20;;;;;;;11.77;4.37;;;;;;;;;;5049473;28;20248;-29
2023/03/13 02:51:48;;;;;;;7.70;3.90;;;;;;;;;;5050519;28;20209;-30
2023/03/13 02:54:18;;;;;;;8.43;3.43;;;;;;;;;;5043435;28;20205;-35
2023/03/13 02:56:47;;;;;;;10.80;3.40;;;;;;;;;;5049538;28;20222;-33
2023/03/13 02:59:15;;;;;;;7.53;3.67;;;;;;;;;;5038105;28;20211;-33
2023/03/13 03:01:43;;;;;;;8.10;4.40;;;;;;;;;;5034084;28;20213;-36
2023/03/13 03:04:10;;;;;;;6.17;3.17;;;;;;;;;;5037100;28;20226;-32
2023/03/13 03:06:37;;;;;;;6.00;3.27;;;;;;;;;;5033715;28;20222;-31
2023/03/13 03:09:04;;;;;;;7.33;4.27;;;;;;;;;;5049163;28;20213;-31
2023/03/13 03:11:32;;;;;;;10.63;3.27;;;;;;;;;;5047144;28;20209;-33
2023/03/13 03:13:59;;;;;;;7.03;3.40;;;;;;;;;;5039436;28;20222;-33
2023/03/13 03:16:26;;;;;;;7.20;2.87;;;;;;;;;;5050654;28;20225;-34
2023/03/13 03:18:54;;;;;;;7.63;2.93;;;;;;;;;;5043081;28;20209;-28
2023/03/13 03:21:22;;;;;;;10.43;3.10;;;;;;;;;;5049202;28;20214;-35
2023/03/13 03:23:50;;;;;;;5.83;3.37;;;;;;;;;;5045127;28;20230;-32
2023/03/13 03:26:17;;;;;;;8.47;3.57;;;;;;;;;;5044421;28;20207;-27
2023/03/13 03:28:44;;;;;;;6.60;3.43;;;;;;;;;;5039209;28;20198;-33
2023/03/13 03:31:12;;;;;;;8.47;3.10;;;;;;;;;;5053794;28;20206;-28
2023/03/13 03:36:42;;;;;;;6.80;3.10;;;;;;;;;;5034947;28;20768;-29
2023/03/13 03:39:23;;;;;;;8.40;3.83;;;;;;;;;;5063752;28;20293;-32
2023/03/13 03:41:57;;;;;;;7.50;2.70;;;;;;;;;;5044219;28;20209;-27
2023/03/13 03:44:42;;;;;;;7.63;3.30;;;;;;;;;;5052519;28;20245;-31
2023/03/13 03:47:09;;;;;;;9.27;3.23;;;;;;;;;;5045768;28;20226;-30
2023/03/13 03:49:36;;;;;;;10.73;2.87;;;;;;;;;;5051441;28;20202;-30
2023/03/13 03:52:05;;;;;;;8.43;3.03;;;;;;;;;;5045561;28;20203;-29
2023/03/13 03:54:32;;;;;;;8.17;3.77;;;;;;;;;;5041717;28;20199;-30
2023/03/13 03:56:59;;;;;;;5.30;3.00;;;;;;;;;;5044976;28;20217;-33
2023/03/13 03:59:26;;;;;;;3.90;2.70;;;;;;;;;;5059458;28;20209;-35
2023/03/13 04:01:53;;;;;;;5.17;2.97;;;;;;;;;;5041187;28;20209;-31
2023/03/13 04:04:20;;;;;;;5.33;3.27;;;;;;;;;;5035167;28;20229;-32
2023/03/13 04:06:48;;;;;;;8.30;3.07;;;;;;;;;;5030613;28;20313;-32
2023/03/13 04:09:16;;;;;;;5.67;3.03;;;;;;;;;;5054442;28;20209;-31
2023/03/13 04:14:11;;;;;;;4.20;2.83;;;;;;;;;;5059977;28;20225;-29
2023/03/13 04:16:39;;;;;;;9.03;2.50;;;;;;;;;;5069397;28;20313;-30
2023/03/13 04:19:06;;;;;;;7.57;2.80;;;;;;;;;;5070949;28;20197;-29
2023/03/13 04:21:33;;;;;;;8.27;3.70;;;;;;;;;;5069227;28;20201;-27
2023/03/13 04:24:00;;;;;;;5.50;3.20;;;;;;;;;;5052725;28;20218;-28
2023/03/13 04:26:29;;;;;;;6.00;2.97;;;;;;;;;;5060261;28;20232;-29
2023/03/13 04:28:57;;;;;;;9.37;3.17;;;;;;;;;;5058493;28;20211;-28
2023/03/13 04:31:24;;;;;;;7.33;3.67;;;;;;;;;;5065381;28;20205;-30
2023/03/13 04:33:51;;;;;;;3.40;2.70;;;;;;;;;;5061716;28;20190;-31
2023/03/13 04:36:18;;;;;;;5.10;2.80;;;;;;;;;;5062186;28;20214;-31
2023/03/13 04:38:45;;;;;;;6.57;2.87;;;;;;;;;;5071559;28;20207;-31
2023/03/13 04:41:13;;;;;;;5.17;2.77;;;;;;;;;;5074313;28;20209;-33
2023/03/13 04:43:41;;;;;;;5.93;2.60;;;;;;;;;;5069181;28;20228;-34
2023/03/13 04:46:08;;;;;;;11.70;3.30;;;;;;;;;;5061422;28;20202;-27
2023/03/13 04:48:35;;;;;;;5.13;2.97;;;;;;;;;;5063576;28;20197;-28
2023/03/13 04:51:02;;;;;;;5.27;2.83;;;;;;;;;;5056736;28;20202;-29
2023/03/13 04:53:30;;;;;;;6.03;2.97;;;;;;;;;;5062382;28;20233;-31
2023/03/13 04:55:57;;;;;;;6.17;2.63;;;;;;;;;;5062323;28;20224;-30
2023/03/13 04:58:24;;;;;;;6.07;2.83;;;;;;;;;;5059221;28;20218;-30
2023/03/13 05:00:53;;;;;;;5.60;2.63;;;;;;;;;;5057410;28;20226;-30
2023/03/13 05:03:21;;;;;;;7.50;2.63;;;;;;;;;;5059577;28;20198;-30
2023/03/13 05:05:48;;;;;;;6.23;3.00;;;;;;;;;;5070293;28;20204;-31
2023/03/13 05:08:15;;;;;;;7.43;2.67;;;;;;;;;;5064774;28;20221;-28
2023/03/13 05:10:42;;;;;;;5.47;2.93;;;;;;;;;;5059375;28;20220;-27
2023/03/13 05:13:09;;;;;;;4.53;2.77;;;;;;;;;;5068278;28;20209;-31
2023/03/13 05:15:36;;;;;;;5.13;2.73;;;;;;;;;;5063419;28;20232;-32
2023/03/13 05:18:05;;;;;;;4.90;2.63;;;;;;;;;;5069133;28;20221;-35
2023/03/13 05:20:32;;;;;;;6.50;2.87;;;;;;;;;;5069933;28;20232;-32
2023/03/13 05:22:59;;;;;;;3.93;2.80;;;;;;;;;;5058404;28;20225;-30
2023/03/13 05:25:26;;;;;;;5.77;3.00;;;;;;;;;;5059701;28;20694;-30
2023/03/13 05:27:54;;;;;;;4.73;2.73;;;;;;;;;;5069560;28;20575;-29
2023/03/13 05:30:21;;;;;;;8.80;3.10;;;;;;;;;;5061912;28;20205;-33
2023/03/13 05:32:48;;;;;;;6.20;2.87;;;;;;;;;;5061048;28;20292;-29
2023/03/13 05:35:16;;;;;;;6.47;2.93;;;;;;;;;;5070117;28;20208;-27
2023/03/13 05:37:44;;;;;;;6.73;2.87;;;;;;;;;;5066125;28;20229;-30
2023/03/13 05:40:12;;;;;;;4.77;2.40;;;;;;;;;;5063805;28;20278;-30
2023/03/13 05:42:39;;;;;;;4.90;2.40;;;;;;;;;;5068919;28;20202;-30
2023/03/13 05:45:08;;;;;;;7.27;2.53;;;;;;;;;;5061430;28;20221;-31
2023/03/13 05:47:35;;;;;;;4.40;2.40;;;;;;;;;;5069653;28;20248;-32
2023/03/13 05:50:02;;;;;;;4.97;2.50;;;;;;;;;;5070235;28;20201;-31
2023/03/13 05:52:30;;;;;;;7.10;2.87;;;;;;;;;;5057334;28;20202;-32
2023/03/13 05:54:58;;;;;;;8.30;3.27;;;;;;;;;;5068759;28;20205;-29
2023/03/13 05:57:25;;;;;;;4.10;2.20;;;;;;;;;;5069728;28;20237;-28
2023/03/13 05:59:52;;;;;;;5.83;3.10;;;;;;;;;;5058094;28;20213;-34
2023/03/13 06:02:19;;;;;;;6.47;3.60;;;;;;;;;;5066727;28;20215;-34
2023/03/13 06:04:46;;;;;;;6.17;2.37;;;;;;;;;;5069195;28;20225;-31
2023/03/13 06:07:13;;;;;;;7.37;3.17;;;;;;;;;;5065750;28;20243;-34
2023/03/13 06:09:42;;;;;;;8.10;3.10;;;;;;;;;;5063645;28;20206;-27
2023/03/13 06:12:10;;;;;;;7.23;3.07;;;;;;;;;;5068582;28;20201;-33
2023/03/13 06:14:37;;;;;;;6.90;3.10;;;;;;;;;;5057158;28;20205;-31
2023/03/13 06:17:05;;;;;;;6.47;3.30;;;;;;;;;;5066921;28;20228;-29
2023/03/13 06:19:32;;;;;;;8.53;3.20;;;;;;;;;;5071070;28;20201;-34
2023/03/13 06:21:59;;;;;;;9.30;3.67;;;;;;;;;;5068809;28;20205;-30
2023/03/13 06:24:26;;;;;;;5.47;2.97;;;;;;;;;;5053512;28;20222;-31
2023/03/13 06:26:55;;;;;;;9.97;3.47;;;;;;;;;;5071101;28;20224;-31
2023/03/13 06:29:23;;;;;;;7.00;3.30;;;;;;;;;;5060373;28;20206;-29
2023/03/13 06:31:50;;;;;;;7.87;3.10;;;;;;;;;;5066612;28;20193;-30
2023/03/13 06:34:18;;;;;;;6.60;2.80;;;;;;;;;;5071347;28;20210;-30
2023/03/13 06:36:45;;;;;;;9.87;2.87;;;;;;;;;;5066109;28;20247;-28
2023/03/13 06:39:13;;;;;;;6.37;2.50;;;;;;;;;;5067148;28;20205;-28
2023/03/13 06:41:40;;;;;;;6.17;2.83;;;;;;;;;;5072306;28;20210;-26
2023/03/13 06:44:08;;;;;;;5.10;2.50;;;;;;;;;;5067127;28;20429;-31
2023/03/13 06:46:36;;;;;;;5.60;2.30;;;;;;;;;;5069708;28;20802;-29
2023/03/13 06:49:04;;;;;;;4.47;2.50;;;;;;;;;;5071281;28;20673;-30
2023/03/13 06:51:32;;;;;;;7.73;3.00;;;;;;;;;;5067363;28;20210;-27
2023/03/13 06:53:59;;;;;;;7.00;3.00;;;;;;;;;;5065941;28;20206;-28
2023/03/13 06:56:26;;;;;;;8.03;3.57;;;;;;;;;;5072103;28;20224;-27
2023/03/13 06:58:53;;;;;;;4.17;2.47;;;;;;;;;;5070992;28;20204;-31
2023/03/13 07:01:22;;;;;;;3.17;1.57;;;;;;;;;;5074674;28;20211;-27
2023/03/13 07:03:49;;;;;;;2.93;2.30;;;;;;;;;;5054972;28;20202;-28
2023/03/13 07:06:17;;;;;;;4.47;1.90;;;;;;;;;;5055276;28;20213;-28
2023/03/13 07:08:44;;;;;;;3.03;2.00;;;;;;;;;;5065272;28;20201;-30
2023/03/13 07:11:12;;;;;;;5.33;2.00;;;;;;;;;;5063258;28;20205;-26
2023/03/13 07:13:40;;;;;;;2.00;1.00;;;;;;;;;;5068536;28;20236;-31
2023/03/13 07:16:09;;;;;;;3.03;1.27;;;;;;;;;;5072324;28;20250;-30
2023/03/13 07:18:44;;;;;;;11.97;3.53;;;;;;;;;;5069562;28;20209;-32
2023/03/13 07:21:11;;;;;;;20.17;7.07;;;;;;;;;;5057234;28;20201;-29
2023/03/13 07:23:39;;;;;;;4.13;1.73;;;;;;;;;;5074964;28;20213;-29
2023/03/13 07:26:07;;;;;;;2.07;0.90;;;;;;;;;;5064476;28;20213;-28
2023/03/13 07:28:34;;;;;;;2.23;0.80;;;;;;;;;;5065311;28;20206;-32
2023/03/13 07:31:05;;;;;;;0.80;0.67;;;;;;;;;;5062415;28;20212;-31
2023/03/13 07:33:32;;;;;;;1.20;0.50;;;;;;;;;;5059211;28;20206;-28
2023/03/13 07:36:01;;;;;;;0.50;0.50;;;;;;;;;;5056758;28;20209;-29
2023/03/13 07:38:28;;;;;;;1.20;0.63;;;;;;;;;;5068096;28;20205;-32
2023/03/13 07:40:56;;;;;;;2.37;0.53;;;;;;;;;;5070837;28;20201;-31
2023/03/13 07:43:23;;;;;;;0.47;0.47;;;;;;;;;;5064258;28;20206;-30
2023/03/13 07:45:51;;;;;;;0.83;0.60;;;;;;;;;;5071352;28;20213;-31
2023/03/13 07:48:26;;;;;;;0.47;0.47;;;;;;;;;;5066084;28;20229;-28
2023/03/13 07:50:55;;;;;;;1.43;0.60;;;;;;;;;;5059039;28;20204;-33
2023/03/13 07:53:23;;;;;;;0.50;0.50;;;;;;;;;;5067778;28;20204;-31
2023/03/13 07:55:54;;;;;;;0.40;0.40;;;;;;;;;;5062663;28;20202;-27
2023/03/13 07:58:26;;;;;;;0.60;0.50;;;;;;;;;;5058050;28;20217;-30
2023/03/13 08:00:55;;;;;;;0.50;0.50;;;;;;;;;;5067192;28;20201;-29
2023/03/13 08:03:22;;;;;;;0.83;0.80;;;;;;;;;;5069242;28;20321;-28
2023/03/13 08:05:57;;;;;;;1.30;0.60;;;;;;;;;;5063724;28;20218;-31
2023/03/13 08:08:26;;;;;;;1.23;0.80;;;;;;;;;;5062045;28;20247;-28
2023/03/13 08:10:53;;;;;;;4.83;0.70;;;;;;;;;;5060455;28;20201;-29
2023/03/13 08:13:20;;;;;;;0.53;0.43;;;;;;;;;;5069535;28;20220;-27
2023/03/13 08:15:47;;;;;;;0.87;0.70;;;;;;;;;;5064266;28;20208;-27
2023/03/13 08:18:14;;;;;;;0.60;0.60;;;;;;;;;;5063423;28;20225;-28
2023/03/13 08:20:42;;;;;;;0.60;0.60;;;;;;;;;;5067430;28;20213;-29
2023/03/13 08:23:09;;;;;;;1.57;0.70;;;;;;;;;;5065200;28;20202;-28
2023/03/13 08:25:38;;;;;;;2.07;0.77;;;;;;;;;;5061017;28;20249;-30
2023/03/13 08:28:05;;;;;;;0.70;0.70;;;;;;;;;;5068286;28;20241;-27
2023/03/13 08:30:32;;;;;;;1.03;0.70;;;;;;;;;;5064570;28;20207;-28
2023/03/13 08:32:59;;;;;;;0.50;0.40;;;;;;;;;;5073273;28;20231;-31
2023/03/13 08:35:27;;;;;;;1.00;0.70;;;;;;;;;;5059549;28;20205;-29
2023/03/13 08:37:54;;;;;;;1.33;0.80;;;;;;;;;;5066526;28;20221;-32
2023/03/13 08:40:23;;;;;;;0.60;0.60;;;;;;;;;;5073429;28;20201;-29
2023/03/13 08:42:51;;;;;;;1.00;0.60;;;;;;;;;;5066657;28;20201;-27
2023/03/13 08:45:18;;;;;;;1.40;0.43;;;;;;;;;;5065951;28;20221;-28
2023/03/13 08:47:46;;;;;;;0.40;0.40;;;;;;;;;;5069922;28;20214;-27
2023/03/13 08:50:13;;;;;;;1.00;0.60;;;;;;;;;;5064320;28;20228;-31
2023/03/13 08:52:40;;;;;;;1.03;0.63;;;;;;;;;;5065335;28;20202;-30
2023/03/13 08:55:08;;;;;;;0.40;0.40;;;;;;;;;;5069621;28;20205;-30
2023/03/13 08:57:35;;;;;;;1.20;0.70;;;;;;;;;;5061857;28;20223;-33
2023/03/13 09:00:05;;;;;;;2.57;0.60;;;;;;;;;;5062764;28;20205;-33
2023/03/13 09:02:32;;;;;;;0.87;0.73;;;;;;;;;;5065554;28;20202;-29
2023/03/13 09:04:59;;;;;;;2.33;0.57;;;;;;;;;;5058067;28;20316;-32
2023/03/13 09:07:26;;;;;;;0.60;0.60;;;;;;;;;;5058002;28;20249;-29
2023/03/13 09:09:53;;;;;;;0.77;0.50;;;;;;;;;;5071064;28;20232;-31
2023/03/13 09:12:20;;;;;;;0.40;0.40;;;;;;;;;;5072463;28;20312;-30
2023/03/13 09:14:48;;;;;;;1.90;0.40;;;;;;;;;;5060531;28;20202;-31
2023/03/13 09:17:17;;;;;;;0.50;0.50;;;;;;;;;;5063429;28;20224;-29
2023/03/13 09:19:44;;;;;;;0.53;0.53;;;;;;;;;;5068788;28;20204;-29
2023/03/13 09:22:11;;;;;;;1.17;0.60;;;;;;;;;;5066948;28;20202;-29
2023/03/13 09:24:39;;;;;;;0.40;0.40;;;;;;;;;;5059354;28;20202;-30
2023/03/13 09:27:07;;;;;;;1.20;0.60;;;;;;;;;;5066233;28;20296;-28
2023/03/13 09:29:38;;;;;;;2.10;0.50;;;;;;;;;;5065374;28;20197;-26
2023/03/13 09:32:06;;;;;;;1.33;0.70;;;;;;;;;;5063258;28;20240;-29
2023/03/13 09:34:35;;;;;;;0.40;0.40;;;;;;;;;;5058419;28;20198;-31
2023/03/13 09:37:02;;;;;;;1.70;0.53;;;;;;;;;;5058950;28;20222;-34
2023/03/13 09:39:29;;;;;;;0.43;0.43;;;;;;;;;;5068296;28;20198;-29
2023/03/13 09:42:01;;;;;;;2.97;0.60;;;;;;;;;;5060744;28;20206;-30
2023/03/13 09:44:30;;;;;;;2.70;0.70;;;;;;;;;;5061177;28;20213;-31
2023/03/13 09:47:01;;;;;;;1.57;0.50;;;;;;;;;;5064659;28;20244;-26
2023/03/13 09:49:30;;;;;;;1.60;0.67;;;;;;;;;;5062799;28;20204;-29
2023/03/13 09:52:03;;;;;;;1.83;0.67;;;;;;;;;;5068716;28;20201;-30
2023/03/13 09:54:35;;;;;;;0.63;0.63;;;;;;;;;;5072176;28;20295;-31
2023/03/13 09:57:06;;;;;;;1.27;0.77;;;;;;;;;;5057020;28;20229;-28
2023/03/13 09:59:37;;;;;;;2.27;1.00;;;;;;;;;;5058456;28;20209;-29
2023/03/13 10:02:06;;;;;;;0.60;0.60;;;;;;;;;;5067879;28;20207;-29
2023/03/13 10:04:36;;;;;;;0.90;0.70;;;;;;;;;;5063449;28;20204;-26
2023/03/13 10:07:04;;;;;;;0.70;0.63;;;;;;;;;;5072057;28;20235;-28
2023/03/13 10:09:32;;;;;;;0.77;0.77;;;;;;;;;;5061905;28;20201;-31
2023/03/13 10:12:05;;;;;;;1.77;0.53;;;;;;;;;;5063913;28;20207;-29
2023/03/13 10:14:37;;;;;;;4.40;0.90;;;;;;;;;;5062134;28;20209;-29
2023/03/13 10:17:07;;;;;;;0.60;0.53;;;;;;;;;;5069190;28;20229;-30
2023/03/13 10:19:37;;;;;;;2.73;1.30;;;;;;;;;;5071488;28;20216;-32
2023/03/13 10:22:12;;;;;;;2.60;1.13;;;;;;;;;;5061223;28;20206;-28
2023/03/13 10:24:43;;;;;;;0.80;0.80;;;;;;;;;;5059430;28;20197;-28
2023/03/13 10:27:10;;;;;;;0.60;0.60;;;;;;;;;;5057531;28;20230;-30
2023/03/13 10:29:37;;;;;;;0.80;0.80;;;;;;;;;;5067174;28;20240;-29
2023/03/13 10:32:05;;;;;;;1.10;1.10;;;;;;;;;;5075835;28;20322;-28
2023/03/13 10:34:45;;;;;;;4.87;1.17;;;;;;;;;;5066950;28;20288;-30
2023/03/13 10:37:15;;;;;;;1.87;0.93;;;;;;;;;;5062136;28;20209;-27
2023/03/13 10:39:42;;;;;;;1.20;1.10;;;;;;;;;;5067059;28;20205;-31
2023/03/13 10:42:10;;;;;;;1.37;1.00;;;;;;;;;;5061208;28;20206;-30
2023/03/13 10:44:37;;;;;;;1.23;1.13;;;;;;;;;;5063228;28;20209;-29
2023/03/13 10:47:08;;;;;;;1.20;1.10;;;;;;;;;;5071238;28;20226;-29
2023/03/13 10:49:47;;;;;;;1.40;1.20;;;;;;;;;;5063735;28;20197;-31
2023/03/13 10:52:29;;;;;;;4.20;1.30;;;;;;;;;;5069064;28;20199;-27
2023/03/13 10:55:00;;;;;;;2.43;1.10;;;;;;;;;;5070651;28;20216;-29
2023/03/13 10:57:29;;;;;;;1.90;1.13;;;;;;;;;;5075233;28;20225;-30
2023/03/13 10:59:57;;;;;;;2.73;1.70;;;;;;;;;;5061109;28;20218;-28
2023/03/13 11:02:27;;;;;;;1.00;1.00;;;;;;;;;;5069598;28;20210;-30
2023/03/13 11:04:54;;;;;;;1.40;1.10;;;;;;;;;;5060153;28;20209;-26
2023/03/13 11:07:27;;;;;;;2.47;1.30;;;;;;;;;;5055321;28;20253;-31
2023/03/13 11:10:02;;;;;;;2.20;1.03;;;;;;;;;;5067250;28;20203;-29
2023/03/13 11:12:29;;;;;;;4.27;1.60;;;;;;;;;;5069768;28;20209;-31
2023/03/13 11:15:00;;;;;;;3.63;1.10;;;;;;;;;;5071731;28;20216;-29
2023/03/13 11:17:31;;;;;;;1.27;1.07;;;;;;;;;;5065160;28;20234;-27
2023/03/13 11:20:04;;;;;;;1.93;1.13;;;;;;;;;;5063089;28;20199;-29
2023/03/13 11:22:38;;;;;;;1.40;1.20;;;;;;;;;;5067371;28;20233;-27
2023/03/13 11:25:19;;;;;;;2.20;1.10;;;;;;;;;;5066900;28;20208;-29
2023/03/13 11:27:49;;;;;;;4.67;1.17;;;;;;;;;;5060466;28;20227;-32
2023/03/13 11:30:21;;;;;;;2.03;0.97;;;;;;;;;;5058316;28;20205;-31
2023/03/13 11:32:51;;;;;;;2.00;1.30;;;;;;;;;;5061125;28;20582;-30
2023/03/13 11:35:26;;;;;;;1.47;1.30;;;;;;;;;;5061964;28;20196;-30
2023/03/13 11:37:57;;;;;;;2.33;1.40;;;;;;;;;;5061561;28;20233;-30
2023/03/13 11:40:27;;;;;;;1.60;1.20;;;;;;;;;;5067290;28;20199;-28
2023/03/13 11:43:08;;;;;;;1.03;1.03;;;;;;;;;;5063305;28;20198;-32
2023/03/13 11:45:45;;;;;;;1.07;1.07;;;;;;;;;;5067443;28;20293;-29
2023/03/13 11:48:19;;;;;;;2.00;1.00;;;;;;;;;;5063217;28;20220;-28
2023/03/13 11:50:49;;;;;;;0.90;0.90;;;;;;;;;;5064736;28;20205;-28
2023/03/13 11:53:26;;;;;;;2.00;0.90;;;;;;;;;;5067637;28;20201;-32
2023/03/13 11:55:57;;;;;;;1.70;0.80;;;;;;;;;;5060965;28;20221;-27
2023/03/13 11:58:49;;;;;;;1.83;0.83;;;;;;;;;;5070904;28;20222;-28
2023/03/13 12:01:17;;;;;;;1.23;1.13;;;;;;;;;;5068792;28;20202;-29
2023/03/13 12:03:56;;;;;;;0.87;0.87;;;;;;;;;;5066092;28;20197;-27
2023/03/13 12:06:25;;;;;;;1.20;1.10;;;;;;;;;;5067228;28;20304;-27
2023/03/13 12:08:57;;;;;;;0.80;0.80;;;;;;;;;;5062096;28;20201;-30
2023/03/13 12:11:27;;;;;;;2.03;0.90;;;;;;;;;;5064674;28;20209;-29
2023/03/13 12:13:58;;;;;;;1.43;0.83;;;;;;;;;;5064346;28;20214;-31
2023/03/13 12:16:27;;;;;;;1.03;0.97;;;;;;;;;;5064809;28;20557;-30
2023/03/13 12:18:54;;;;;;;1.63;0.97;;;;;;;;;;5062380;28;20197;-32
2023/03/13 12:21:23;;;;;;;1.73;1.13;;;;;;;;;;5059864;28;20200;-29
2023/03/13 12:23:54;;;;;;;3.40;0.90;;;;;;;;;;5066198;28;20208;-27
2023/03/13 12:26:23;;;;;;;2.43;1.43;;;;;;;;;;5067226;28;20235;-32
2023/03/13 12:28:58;;;;;;;1.60;0.90;;;;;;;;;;5058568;28;20197;-28
2023/03/13 12:31:28;;;;;;;2.13;1.07;;;;;;;;;;5062768;28;20221;-32
2023/03/13 12:33:59;;;;;;;2.80;1.00;;;;;;;;;;5071348;28;20193;-28
2023/03/13 12:36:33;;;;;;;2.27;1.00;;;;;;;;;;5060876;28;20233;-30
2023/03/13 12:39:03;;;;;;;1.50;1.00;;;;;;;;;;5063223;28;20254;-30
2023/03/13 12:41:34;;;;;;;2.10;0.97;;;;;;;;;;5061753;28;20204;-26
2023/03/13 12:44:01;;;;;;;2.97;1.13;;;;;;;;;;5059628;28;20216;-28
2023/03/13 12:46:34;;;;;;;2.73;1.10;;;;;;;;;;5056442;28;20230;-27
2023/03/13 12:49:09;;;;;;;2.73;1.10;;;;;;;;;;5067366;28;20189;-37
2023/03/13 12:51:43;;;;;;;0.97;0.97;;;;;;;;;;5065054;28;20200;-30
2023/03/13 12:54:22;;;;;;;1.63;1.00;;;;;;;;;;5066108;28;20287;-29
2023/03/13 12:57:01;;;;;;;1.10;1.00;;;;;;;;;;5058457;28;20265;-28
2023/03/13 12:59:30;;;;;;;1.00;0.90;;;;;;;;;;5059525;28;20212;-33
2023/03/13 13:01:57;;;;;;;1.00;0.93;;;;;;;;;;5058100;28;20307;-29
2023/03/13 13:04:26;;;;;;;1.53;1.07;;;;;;;;;;5062052;28;20205;-26
2023/03/13 13:06:55;;;;;;;2.13;0.90;;;;;;;;;;5063909;28;20255;-31
2023/03/13 13:09:23;;;;;;;1.47;1.17;;;;;;;;;;5058354;28;20205;-29
2023/03/13 13:11:51;;;;;;;2.20;0.90;;;;;;;;;;5065157;28;20197;-29
2023/03/13 13:14:37;;;;;;;1.67;1.00;;;;;;;;;;5062396;28;20206;-31
2023/03/13 13:17:16;;;;;;;0.90;0.90;;;;;;;;;;5066635;28;20221;-27
2023/03/13 13:19:44;;;;;;;2.00;1.37;;;;;;;;;;5052055;28;20202;-30
2023/03/13 13:22:32;;;;;;;1.00;1.00;;;;;;;;;;5064831;28;20198;-31
2023/03/13 13:24:59;;;;;;;0.97;0.90;;;;;;;;;;5064631;28;20216;-30
2023/03/13 13:27:44;;;;;;;1.20;1.10;;;;;;;;;;5064338;28;20312;-30
2023/03/13 13:30:26;;;;;;;1.20;1.10;;;;;;;;;;5059206;28;20197;-27
2023/03/13 13:32:55;;;;;;;4.40;1.33;;;;;;;;;;5060206;28;20213;-34
2023/03/13 13:35:24;;;;;;;2.57;1.20;;;;;;;;;;5057466;28;20197;-30
2023/03/13 13:37:52;;;;;;;0.80;0.80;;;;;;;;;;5057506;28;20304;-29
2023/03/13 13:40:24;;;;;;;1.40;1.03;;;;;;;;;;5061852;28;20209;-30
2023/03/13 13:42:52;;;;;;;5.30;1.03;;;;;;;;;;5066016;28;20190;-27
2023/03/13 13:45:25;;;;;;;4.90;1.03;;;;;;;;;;5062012;28;20197;-25
2023/03/13 13:48:12;;;;;;;0.83;0.70;;;;;;;;;;5058317;28;20229;-29
2023/03/13 13:51:01;;;;;;;2.20;1.20;;;;;;;;;;5065024;28;20189;-30
2023/03/13 13:53:32;;;;;;;2.13;1.20;;;;;;;;;;5053340;28;20212;-26
2023/03/13 13:56:02;;;;;;;1.83;1.20;;;;;;;;;;5057549;28;20216;-27
2023/03/13 13:58:30;;;;;;;3.50;1.10;;;;;;;;;;5062779;28;20212;-28
2023/03/13 14:01:00;;;;;;;1.10;1.00;;;;;;;;;;5060258;28;20205;-31
2023/03/13 14:03:28;;;;;;;2.57;1.40;;;;;;;;;;5063334;28;20205;-34
2023/03/13 14:05:58;;;;;;;1.50;0.93;;;;;;;;;;5054652;28;20653;-30
2023/03/13 14:08:28;;;;;;;1.47;1.17;;;;;;;;;;5061158;28;20202;-29
2023/03/13 14:11:05;;;;;;;2.60;0.90;;;;;;;;;;5065701;28;20221;-30
2023/03/13 14:13:32;;;;;;;2.53;0.90;;;;;;;;;;5058321;28;20266;-27
2023/03/13 14:16:13;;;;;;;2.70;0.83;;;;;;;;;;5065393;28;20212;-27
2023/03/13 14:18:43;;;;;;;1.80;1.23;;;;;;;;;;5064653;28;20201;-27
2023/03/13 14:21:13;;;;;;;1.17;0.80;;;;;;;;;;5064063;28;20270;-30
2023/03/13 14:23:41;;;;;;;1.23;0.90;;;;;;;;;;5060440;28;20194;-28
2023/03/13 14:26:17;;;;;;;1.00;0.87;;;;;;;;;;5060611;28;20209;-32
2023/03/13 14:28:46;;;;;;;1.33;1.10;;;;;;;;;;5056897;28;20208;-31
2023/03/13 14:31:25;;;;;;;3.90;0.83;;;;;;;;;;5061863;28;20197;-29
2023/03/13 14:33:52;;;;;;;2.00;0.90;;;;;;;;;;5060462;28;20232;-28
2023/03/13 14:36:21;;;;;;;2.93;2.00;;;;;;;;;;5053559;28;20206;-34
2023/03/13 14:38:52;;;;;;;1.93;0.80;;;;;;;;;;5061061;28;20244;-30
2023/03/13 14:41:29;;;;;;;1.47;0.80;;;;;;;;;;5061358;28;20198;-31
2023/03/13 14:44:03;;;;;;;1.70;0.53;;;;;;;;;;5054417;28;20483;-29
2023/03/13 14:46:31;;;;;;;2.50;0.77;;;;;;;;;;5064093;28;20225;-27
2023/03/13 14:49:05;;;;;;;1.87;0.80;;;;;;;;;;5062158;28;20211;-28
2023/03/13 14:51:38;;;;;;;2.93;0.87;;;;;;;;;;5061553;28;20198;-32
2023/03/13 14:54:05;;;;;;;1.83;0.80;;;;;;;;;;5058156;28;20214;-32
2023/03/13 14:56:33;;;;;;;2.07;1.10;;;;;;;;;;5062832;28;20217;-32
2023/03/13 14:59:08;;;;;;;2.17;1.03;;;;;;;;;;5059917;28;20259;-30
2023/03/13 15:01:35;;;;;;;2.30;0.80;;;;;;;;;;5063318;28;20213;-27